createdAt,value
2022-09-02T00:00:37.319Z,16.66
2022-09-02T00:01:37.345Z,16.66
2022-09-02T00:02:37.521Z,16.67
2022-09-02T00:03:37.460Z,16.67
2022-09-02T00:04:37.419Z,16.64
2022-09-02T00:05:37.446Z,16.73
2022-09-02T00:06:37.471Z,16.64
2022-09-02T00:07:37.497Z,16.64
2022-09-02T00:08:37.520Z,16.66
2022-09-02T00:09:37.547Z,16.61
2022-09-02T00:10:37.572Z,16.61
2022-09-02T00:11:37.598Z,16.49
2022-09-02T00:12:37.619Z,16.60
2022-09-02T00:13:37.645Z,16.56
2022-09-02T00:14:37.670Z,16.50
2022-09-02T00:15:37.695Z,16.50
2022-09-02T00:16:37.746Z,16.48
2022-09-02T00:17:37.745Z,16.46
2022-09-02T00:18:37.772Z,16.39
2022-09-02T00:19:37.798Z,16.38
2022-09-02T00:20:37.820Z,16.46
2022-09-02T00:21:37.845Z,16.49
2022-09-02T00:22:37.869Z,16.39
2022-09-02T00:23:37.894Z,16.46
2022-09-02T00:24:37.917Z,16.43
2022-09-02T00:25:37.943Z,16.38
2022-09-02T00:26:37.969Z,16.34
2022-09-02T00:27:37.996Z,16.38
2022-09-02T00:28:38.020Z,16.25
2022-09-02T00:29:38.047Z,16.21
2022-09-02T00:30:38.071Z,16.17
2022-09-02T00:31:38.144Z,16.20
2022-09-02T00:32:38.119Z,16.20
2022-09-02T00:33:38.145Z,16.27
2022-09-02T00:34:38.175Z,16.24
2022-09-02T00:35:38.194Z,16.24
2022-09-02T00:36:38.219Z,16.20
2022-09-02T00:37:38.242Z,16.27
2022-09-02T00:38:38.268Z,16.27
2022-09-02T00:39:38.293Z,16.21
2022-09-02T00:40:38.368Z,16.21
2022-09-02T00:41:38.347Z,16.20
2022-09-02T00:42:38.369Z,16.14
2022-09-02T00:43:38.398Z,16.21
2022-09-02T00:44:38.419Z,16.24
2022-09-02T00:45:38.485Z,16.25
2022-09-02T00:46:38.469Z,16.17
2022-09-02T00:47:38.494Z,16.20
2022-09-02T00:48:38.517Z,16.20
2022-09-02T00:49:38.541Z,16.20
2022-09-02T00:50:38.565Z,16.09
2022-09-02T00:51:38.592Z,16.14
2022-09-02T00:52:38.619Z,16.09
2022-09-02T00:53:38.688Z,16.11
2022-09-02T00:54:38.667Z,16.12
2022-09-02T00:55:38.693Z,16.07
2022-09-02T00:56:38.716Z,16.09
2022-09-02T00:57:38.742Z,16.02
2022-09-02T00:58:38.765Z,16.09
2022-09-02T00:59:38.791Z,16.07
2022-09-02T01:00:38.841Z,16.01
2022-09-02T01:01:38.979Z,16.01
2022-09-02T01:02:38.929Z,15.97
2022-09-02T01:03:38.891Z,15.97
2022-09-02T01:04:38.913Z,15.96
2022-09-02T01:05:43.680Z,15.90
2022-09-02T01:06:38.962Z,15.87
2022-09-02T01:07:38.989Z,15.87
2022-09-02T01:08:39.014Z,15.89
2022-09-02T01:09:39.049Z,15.86
2022-09-02T01:10:39.060Z,15.74
2022-09-02T01:11:39.094Z,15.80
2022-09-02T01:12:39.113Z,15.78
2022-09-02T01:13:39.138Z,15.90
2022-09-02T01:14:39.161Z,15.82
2022-09-02T01:15:39.185Z,15.82
2022-09-02T01:16:39.295Z,15.86
2022-09-02T01:17:39.232Z,15.76
2022-09-02T01:18:39.258Z,15.74
2022-09-02T01:19:39.283Z,15.71
2022-09-02T01:20:39.309Z,15.75
2022-09-02T01:21:39.328Z,15.78
2022-09-02T01:22:39.359Z,15.74
2022-09-02T01:23:39.381Z,15.71
2022-09-02T01:24:39.405Z,15.83
2022-09-02T01:25:39.432Z,15.75
2022-09-02T01:26:39.458Z,15.78
2022-09-02T01:27:39.481Z,15.78
2022-09-02T01:28:39.507Z,15.65
2022-09-02T01:29:39.532Z,15.83
2022-09-02T01:30:39.550Z,15.67
2022-09-02T01:31:39.616Z,15.80
2022-09-02T01:32:39.605Z,15.76
2022-09-02T01:33:39.629Z,15.71
2022-09-02T01:34:39.651Z,15.75
2022-09-02T01:35:39.679Z,15.80
2022-09-02T01:36:39.702Z,15.76
2022-09-02T01:37:39.731Z,15.69
2022-09-02T01:38:39.753Z,15.75
2022-09-02T01:39:39.774Z,15.78
2022-09-02T01:40:39.849Z,15.80
2022-09-02T01:41:39.826Z,15.75
2022-09-02T01:42:39.850Z,15.80
2022-09-02T01:43:39.874Z,15.78
2022-09-02T01:44:39.894Z,15.80
2022-09-02T01:45:39.923Z,15.64
2022-09-02T01:46:40.000Z,15.82
2022-09-02T01:47:39.970Z,15.71
2022-09-02T01:48:39.998Z,15.75
2022-09-02T01:49:47.246Z,15.71
2022-09-02T01:51:44.510Z,15.69
2022-09-02T01:52:44.048Z,15.74
2022-09-02T01:54:48.065Z,15.71
2022-09-02T01:55:48.082Z,15.75
2022-09-02T01:57:52.575Z,15.65
2022-09-02T01:58:52.729Z,15.71
2022-09-02T02:00:45.206Z,15.67
2022-09-02T02:01:45.111Z,15.71
2022-09-02T02:03:49.569Z,15.72
2022-09-02T02:04:49.106Z,15.71
2022-09-02T02:06:53.607Z,15.59
2022-09-02T02:07:53.146Z,15.59
2022-09-02T02:09:57.164Z,15.56
2022-09-02T02:10:57.179Z,15.49
2022-09-02T02:13:01.668Z,15.51
2022-09-02T02:14:01.212Z,15.54
2022-09-02T02:16:05.306Z,15.47
2022-09-02T02:17:05.242Z,15.49
2022-09-02T02:19:09.735Z,15.51
2022-09-02T02:20:09.269Z,15.49
2022-09-02T02:22:13.289Z,15.43
2022-09-02T02:23:13.409Z,15.43
2022-09-02T02:25:17.794Z,15.50
2022-09-02T02:26:17.329Z,15.41
2022-09-02T02:28:21.339Z,15.36
2022-09-02T02:29:21.355Z,15.49
2022-09-02T02:31:14.875Z,15.43
2022-09-02T02:32:14.316Z,15.41
2022-09-02T02:34:18.335Z,15.35
2022-09-02T02:35:18.351Z,15.31
2022-09-02T02:37:25.499Z,15.32
2022-09-02T02:38:22.382Z,15.31
2022-09-02T02:40:15.353Z,15.21
2022-09-02T02:41:15.334Z,15.23
2022-09-02T02:43:19.862Z,15.25
2022-09-02T02:44:19.364Z,15.17
2022-09-02T02:46:23.908Z,15.27
2022-09-02T02:47:23.409Z,15.32
2022-09-02T02:49:27.421Z,15.17
2022-09-02T02:50:27.434Z,15.29
2022-09-02T02:52:31.930Z,15.23
2022-09-02T02:53:31.469Z,15.25
2022-09-02T02:55:35.484Z,15.29
2022-09-02T02:56:35.504Z,15.20
2022-09-02T02:58:39.993Z,15.21
2022-09-02T02:59:39.537Z,15.11
2022-09-02T03:01:43.630Z,14.92
2022-09-02T03:02:43.758Z,15.10
2022-09-02T03:04:48.051Z,15.10
2022-09-02T03:05:47.592Z,14.99
2022-09-02T03:07:51.599Z,14.98
2022-09-02T03:08:51.621Z,14.98
2022-09-02T03:10:45.098Z,14.94
2022-09-02T03:11:44.569Z,14.92
2022-09-02T03:13:48.584Z,14.89
2022-09-02T03:14:48.603Z,14.94
2022-09-02T03:16:53.091Z,14.73
2022-09-02T03:17:52.625Z,14.78
2022-09-02T03:19:56.639Z,14.78
2022-09-02T03:20:56.651Z,14.78
2022-09-02T03:23:01.147Z,14.77
2022-09-02T03:24:00.684Z,14.77
2022-09-02T03:26:04.705Z,14.75
2022-09-02T03:27:04.717Z,14.73
2022-09-02T03:29:09.217Z,14.77
2022-09-02T03:30:08.750Z,14.72
2022-09-02T03:32:12.766Z,14.62
2022-09-02T03:33:12.784Z,14.70
2022-09-02T03:35:17.271Z,14.62
2022-09-02T03:36:16.806Z,14.69
2022-09-02T03:38:20.820Z,14.52
2022-09-02T03:39:20.840Z,14.58
2022-09-02T03:41:14.315Z,14.54
2022-09-02T03:42:19.565Z,14.51
2022-09-02T03:44:17.802Z,14.55
2022-09-02T03:45:17.825Z,14.60
2022-09-02T03:47:22.315Z,14.54
2022-09-02T03:48:21.853Z,14.52
2022-09-02T03:50:15.324Z,14.47
2022-09-02T03:51:14.801Z,14.52
2022-09-02T03:53:19.865Z,14.46
2022-09-02T03:54:18.826Z,14.46
2022-09-02T03:56:23.320Z,14.32
2022-09-02T03:57:22.853Z,14.39
2022-09-02T03:59:26.875Z,14.36
2022-09-02T04:00:26.891Z,14.39
2022-09-02T04:02:31.502Z,14.40
2022-09-02T04:03:30.920Z,14.43
2022-09-02T04:05:34.929Z,14.45
2022-09-02T04:06:34.954Z,14.43
2022-09-02T04:08:39.443Z,14.33
2022-09-02T04:09:41.434Z,14.35
2022-09-02T04:11:42.985Z,14.27
2022-09-02T04:12:43.002Z,14.33
2022-09-02T04:14:47.492Z,14.20
2022-09-02T04:15:47.047Z,14.17
2022-09-02T04:17:40.172Z,14.14
2022-09-02T04:18:40.183Z,14.12
2022-09-02T04:20:33.657Z,14.15
2022-09-02T04:21:33.136Z,14.10
2022-09-02T04:23:37.150Z,14.15
2022-09-02T04:24:37.167Z,14.15
2022-09-02T04:26:45.410Z,14.17
2022-09-02T04:27:41.196Z,14.20
2022-09-02T04:29:45.222Z,14.04
2022-09-02T04:30:45.237Z,14.00
2022-09-02T04:32:49.728Z,13.97
2022-09-02T04:33:49.271Z,14.03
2022-09-02T04:35:53.278Z,13.96
2022-09-02T04:36:53.291Z,14.03
2022-09-02T04:38:57.781Z,13.92
2022-09-02T04:39:57.324Z,14.03
2022-09-02T04:42:01.335Z,13.92
2022-09-02T04:43:01.347Z,13.87
2022-09-02T04:45:05.841Z,13.87
2022-09-02T04:46:05.435Z,13.84
2022-09-02T04:48:09.380Z,13.82
2022-09-02T04:49:09.402Z,13.82
2022-09-02T04:51:02.876Z,13.77
2022-09-02T04:52:02.351Z,13.73
2022-09-02T04:54:06.369Z,13.79
2022-09-02T04:55:06.388Z,13.77
2022-09-02T04:57:10.880Z,13.71
2022-09-02T04:58:10.426Z,13.81
2022-09-02T05:00:14.432Z,13.73
2022-09-02T05:01:14.499Z,13.67
2022-09-02T05:03:18.939Z,13.73
2022-09-02T05:04:18.479Z,13.77
2022-09-02T05:06:22.487Z,13.77
2022-09-02T05:07:22.501Z,13.84
2022-09-02T05:09:26.994Z,13.96
2022-09-02T05:10:26.527Z,13.89
2022-09-02T05:12:30.548Z,14.00
2022-09-02T05:13:30.567Z,14.00
2022-09-02T05:15:35.115Z,14.00
2022-09-02T05:16:34.593Z,14.14
2022-09-02T05:18:39.087Z,14.09
2022-09-02T05:19:38.624Z,14.17
2022-09-02T05:21:43.115Z,14.18
2022-09-02T05:22:42.654Z,14.28
2022-09-02T05:24:46.681Z,14.36
2022-09-02T05:25:46.684Z,14.43
2022-09-02T05:27:51.174Z,14.29
2022-09-02T05:28:50.717Z,14.36
2022-09-02T05:30:43.673Z,14.40
2022-09-02T05:31:43.673Z,14.51
2022-09-02T05:33:48.170Z,14.60
2022-09-02T05:34:47.710Z,14.62
2022-09-02T05:36:52.200Z,14.70
2022-09-02T05:37:51.743Z,14.72
2022-09-02T05:39:55.760Z,14.75
2022-09-02T05:40:55.811Z,14.75
2022-09-02T05:43:00.663Z,14.83
2022-09-02T05:44:01.588Z,14.84
2022-09-02T05:46:03.859Z,14.96
2022-09-02T05:47:03.828Z,14.98
2022-09-02T05:49:08.321Z,15.01
2022-09-02T05:50:07.925Z,15.10
2022-09-02T05:52:11.889Z,15.14
2022-09-02T05:53:14.377Z,15.16
2022-09-02T05:55:05.367Z,15.20
2022-09-02T05:56:05.042Z,15.28
2022-09-02T05:58:09.066Z,15.38
2022-09-02T05:59:09.081Z,15.41
2022-09-02T06:01:02.565Z,15.38
2022-09-02T06:02:02.063Z,15.51
2022-09-02T06:04:06.052Z,15.60
2022-09-02T06:05:06.069Z,15.62
2022-09-02T06:07:11.797Z,15.67
2022-09-02T06:08:10.104Z,15.83
2022-09-02T06:10:14.117Z,16.25
2022-09-02T06:11:14.139Z,16.56
2022-09-02T06:13:18.660Z,17.12
2022-09-02T06:14:18.164Z,17.43
2022-09-02T06:16:11.327Z,17.87
2022-09-02T06:17:11.320Z,18.03
2022-09-02T06:19:19.688Z,18.54
2022-09-02T06:20:15.354Z,18.67
2022-09-02T06:22:19.372Z,18.98
2022-09-02T06:23:19.388Z,19.16
2022-09-02T06:25:12.872Z,19.25
2022-09-02T06:26:12.552Z,19.33
2022-09-02T06:28:16.571Z,19.59
2022-09-02T06:29:16.583Z,19.69
2022-09-02T06:31:10.130Z,19.69
2022-09-02T06:32:09.549Z,19.87
2022-09-02T06:34:13.611Z,20.14
2022-09-02T06:35:13.632Z,20.06
2022-09-02T06:37:18.088Z,20.47
2022-09-02T06:38:17.629Z,20.54
2022-09-02T06:40:21.709Z,20.97
2022-09-02T06:41:21.669Z,20.99
2022-09-02T06:43:26.170Z,21.44
2022-09-02T06:44:25.723Z,21.56
2022-09-02T06:46:30.251Z,21.88
2022-09-02T06:47:29.762Z,22.02
2022-09-02T06:49:33.790Z,22.10
2022-09-02T06:50:33.818Z,22.20
2022-09-02T06:52:38.314Z,21.88
2022-09-02T06:53:37.871Z,21.64
2022-09-02T06:55:41.886Z,21.24
2022-09-02T06:56:45.916Z,21.06
2022-09-02T06:58:46.405Z,20.85
2022-09-02T06:59:45.953Z,20.67
2022-09-02T07:01:39.234Z,20.35
2022-09-02T07:02:39.110Z,20.32
2022-09-02T07:04:43.608Z,20.21
2022-09-02T07:05:43.171Z,20.14
2022-09-02T07:07:47.184Z,20.10
2022-09-02T07:08:47.204Z,19.96
2022-09-02T07:10:40.689Z,19.98
2022-09-02T07:11:40.170Z,19.99
2022-09-02T07:13:44.678Z,19.91
2022-09-02T07:14:44.270Z,19.84
2022-09-02T07:16:48.288Z,19.86
2022-09-02T07:17:48.257Z,19.69
2022-09-02T07:19:52.759Z,19.83
2022-09-02T07:20:52.302Z,19.81
2022-09-02T07:22:45.496Z,19.88
2022-09-02T07:23:45.473Z,19.95
2022-09-02T07:25:38.950Z,19.92
2022-09-02T07:26:38.678Z,19.95
2022-09-02T07:28:42.678Z,19.94
2022-09-02T07:29:42.691Z,19.98
2022-09-02T07:30:42.788Z,19.94
2022-09-02T07:31:42.747Z,19.92
2022-09-02T07:32:42.809Z,20.06
2022-09-02T07:33:42.808Z,20.13
2022-09-02T07:34:42.830Z,20.26
2022-09-02T07:35:42.859Z,20.17
2022-09-02T07:36:42.887Z,20.21
2022-09-02T07:37:42.932Z,20.28
2022-09-02T07:38:42.942Z,20.31
2022-09-02T07:39:42.965Z,20.31
2022-09-02T07:40:43.043Z,20.33
2022-09-02T07:41:43.021Z,20.32
2022-09-02T07:42:43.141Z,20.33
2022-09-02T07:43:43.077Z,20.33
2022-09-02T07:44:43.107Z,20.36
2022-09-02T07:45:43.204Z,20.38
2022-09-02T07:46:43.165Z,20.41
2022-09-02T07:47:43.192Z,20.48
2022-09-02T07:48:43.219Z,20.55
2022-09-02T07:50:43.276Z,20.69
2022-09-02T07:51:43.303Z,20.73
2022-09-02T07:52:43.335Z,20.74
2022-09-02T07:53:43.359Z,20.87
2022-09-02T07:54:43.387Z,20.85
2022-09-02T07:55:43.416Z,20.88
2022-09-02T07:56:43.446Z,20.92
2022-09-02T07:57:43.465Z,20.94
2022-09-02T07:58:43.492Z,20.89
2022-09-02T07:59:43.528Z,20.97
2022-09-02T08:00:43.548Z,21.01
2022-09-02T08:02:43.745Z,21.24
2022-09-02T08:03:43.636Z,21.25
2022-09-02T08:04:43.673Z,21.28
2022-09-02T08:05:43.692Z,21.35
2022-09-02T08:06:43.720Z,21.25
2022-09-02T08:07:43.745Z,21.28
2022-09-02T08:08:43.781Z,21.28
2022-09-02T08:09:43.808Z,21.38
2022-09-02T08:10:43.828Z,21.40
2022-09-02T08:11:43.870Z,21.61
2022-09-02T08:12:43.902Z,21.50
2022-09-02T08:13:43.920Z,21.54
2022-09-02T08:14:43.944Z,21.53
2022-09-02T08:15:43.976Z,21.54
2022-09-02T08:16:44.067Z,21.59
2022-09-02T08:17:44.029Z,21.56
2022-09-02T08:18:44.060Z,21.58
2022-09-02T08:19:44.086Z,21.67
2022-09-02T08:20:44.110Z,21.72
2022-09-02T08:21:44.144Z,21.80
2022-09-02T08:22:46.729Z,21.75
2022-09-02T08:23:44.780Z,21.80
2022-09-02T08:24:44.227Z,21.92
2022-09-02T08:25:44.260Z,21.99
2022-09-02T08:26:44.285Z,22.02
2022-09-02T08:27:44.359Z,22.02
2022-09-02T08:28:44.355Z,22.00
2022-09-02T08:29:44.371Z,21.98
2022-09-02T08:30:44.410Z,22.02
2022-09-02T08:31:44.467Z,22.09
2022-09-02T08:32:44.455Z,22.02
2022-09-02T08:33:44.483Z,21.99
2022-09-02T08:34:44.533Z,22.02
2022-09-02T08:35:44.553Z,22.17
2022-09-02T08:36:47.573Z,22.10
2022-09-02T08:37:44.599Z,22.27
2022-09-02T08:38:51.785Z,22.28
2022-09-02T08:41:42.031Z,22.31
2022-09-02T08:42:41.586Z,22.25
2022-09-02T08:44:45.621Z,22.36
2022-09-02T08:45:45.700Z,22.28
2022-09-02T08:47:50.131Z,22.25
2022-09-02T08:48:49.689Z,22.25
2022-09-02T08:50:42.633Z,22.30
2022-09-02T08:51:42.652Z,22.31
2022-09-02T08:53:47.146Z,22.31
2022-09-02T08:54:46.729Z,22.37
2022-09-02T08:56:50.733Z,22.45
2022-09-02T08:57:50.751Z,22.54
2022-09-02T08:59:55.244Z,22.54
2022-09-02T09:00:54.873Z,22.67
2022-09-02T09:02:58.827Z,22.65
2022-09-02T09:03:58.849Z,22.62
2022-09-02T09:06:03.341Z,22.65
2022-09-02T09:07:02.922Z,22.76
2022-09-02T09:09:07.415Z,22.77
2022-09-02T09:10:06.979Z,22.90
2022-09-02T09:12:11.002Z,23.05
2022-09-02T09:13:11.026Z,23.10
2022-09-02T09:15:15.520Z,23.02
2022-09-02T09:16:15.153Z,23.00
2022-09-02T09:18:19.228Z,23.05
2022-09-02T09:19:19.160Z,23.15
2022-09-02T09:21:12.674Z,23.19
2022-09-02T09:22:12.131Z,23.19
2022-09-02T09:24:16.158Z,23.16
2022-09-02T09:25:16.178Z,23.20
2022-09-02T09:27:20.666Z,23.22
2022-09-02T09:28:20.227Z,23.25
2022-09-02T09:30:15.526Z,23.23
2022-09-02T09:31:13.219Z,23.28
2022-09-02T09:33:17.771Z,23.42
2022-09-02T09:34:17.236Z,23.47
2022-09-02T09:36:21.273Z,23.51
2022-09-02T09:37:21.291Z,23.43
2022-09-02T09:39:25.788Z,23.31
2022-09-02T09:40:25.371Z,23.36
2022-09-02T09:42:29.372Z,23.27
2022-09-02T09:43:29.390Z,23.38
2022-09-02T09:45:33.950Z,23.32
2022-09-02T09:46:33.438Z,23.42
2022-09-02T09:48:37.462Z,23.47
2022-09-02T09:49:37.482Z,23.48
2022-09-02T09:51:49.720Z,23.57
2022-09-02T09:52:41.562Z,23.53
2022-09-02T09:54:45.571Z,23.60
2022-09-02T09:55:45.589Z,23.54
2022-09-02T09:56:45.617Z,23.58
2022-09-02T09:57:45.859Z,23.57
2022-09-02T09:58:45.676Z,23.57
2022-09-02T09:59:45.704Z,23.54
2022-09-02T10:00:45.754Z,23.58
2022-09-02T10:01:45.819Z,23.60
2022-09-02T10:02:45.794Z,23.55
2022-09-02T10:03:45.820Z,23.55
2022-09-02T10:04:45.929Z,23.66
2022-09-02T10:05:45.882Z,23.66
2022-09-02T10:06:45.914Z,23.68
2022-09-02T10:07:45.943Z,23.78
2022-09-02T10:08:45.969Z,23.72
2022-09-02T10:09:46.001Z,23.68
2022-09-02T10:10:46.031Z,23.76
2022-09-02T10:11:46.061Z,23.73
2022-09-02T10:12:46.090Z,23.78
2022-09-02T10:13:46.121Z,23.69
2022-09-02T10:14:46.155Z,23.73
2022-09-02T10:15:46.183Z,23.70
2022-09-02T10:16:46.278Z,23.75
2022-09-02T10:17:46.239Z,23.79
2022-09-02T10:18:46.268Z,23.76
2022-09-02T10:19:46.321Z,23.79
2022-09-02T10:20:58.556Z,23.87
2022-09-02T10:21:46.356Z,23.91
2022-09-02T10:22:58.676Z,23.97
2022-09-02T10:23:46.433Z,24.09
2022-09-02T10:24:46.478Z,24.12
2022-09-02T10:25:46.478Z,24.15
2022-09-02T10:26:46.506Z,24.20
2022-09-02T10:27:46.551Z,24.30
2022-09-02T10:28:46.564Z,24.39
2022-09-02T10:29:46.600Z,24.42
2022-09-02T10:30:46.633Z,24.57
2022-09-02T10:31:46.716Z,24.62
2022-09-02T10:32:46.689Z,24.55
2022-09-02T10:33:46.720Z,24.67
2022-09-02T10:34:46.753Z,24.85
2022-09-02T10:35:46.786Z,24.83
2022-09-02T10:36:46.810Z,24.95
2022-09-02T10:37:46.843Z,25.03
2022-09-02T10:38:46.877Z,25.24
2022-09-02T10:39:46.903Z,25.28
2022-09-02T10:40:47.018Z,25.35
2022-09-02T10:41:46.979Z,25.45
2022-09-02T10:42:46.996Z,25.62
2022-09-02T10:43:47.024Z,25.79
2022-09-02T10:44:47.057Z,25.82
2022-09-02T10:45:47.100Z,25.82
2022-09-02T10:46:47.168Z,25.79
2022-09-02T10:47:47.192Z,25.82
2022-09-02T10:48:47.182Z,25.90
2022-09-02T10:49:47.215Z,25.83
2022-09-02T10:50:49.534Z,25.70
2022-09-02T10:51:47.278Z,25.65
2022-09-02T10:52:47.308Z,25.54
2022-09-02T10:53:47.344Z,25.51
2022-09-02T10:54:47.369Z,25.52
2022-09-02T10:55:47.404Z,25.55
2022-09-02T10:56:47.429Z,25.65
2022-09-02T10:57:47.462Z,25.58
2022-09-02T10:58:47.542Z,25.61
2022-09-02T10:59:47.526Z,25.61
2022-09-02T11:00:47.571Z,25.61
2022-09-02T11:01:47.589Z,25.61
2022-09-02T11:02:47.619Z,25.62
2022-09-02T11:03:47.710Z,25.73
2022-09-02T11:04:47.680Z,25.67
2022-09-02T11:05:47.712Z,25.69
2022-09-02T11:07:03.791Z,25.70
2022-09-02T11:07:47.770Z,25.57
2022-09-02T11:08:47.801Z,25.50
2022-09-02T11:09:47.837Z,25.54
2022-09-02T11:10:47.895Z,25.55
2022-09-02T11:11:47.894Z,25.62
2022-09-02T11:12:47.929Z,25.58
2022-09-02T11:13:47.960Z,25.72
2022-09-02T11:14:47.992Z,25.62
2022-09-02T11:15:48.058Z,25.67
2022-09-02T11:16:48.055Z,25.67
2022-09-02T11:17:48.078Z,25.69
2022-09-02T11:18:48.114Z,25.65
2022-09-02T11:19:48.146Z,25.69
2022-09-02T11:20:48.176Z,25.79
2022-09-02T11:21:48.209Z,25.91
2022-09-02T11:22:48.235Z,25.97
2022-09-02T11:23:48.264Z,25.94
2022-09-02T11:24:48.301Z,26.12
2022-09-02T11:25:48.351Z,26.02
2022-09-02T11:26:48.359Z,26.02
2022-09-02T11:27:48.395Z,26.10
2022-09-02T11:28:48.421Z,26.09
2022-09-02T11:29:48.452Z,26.10
2022-09-02T11:30:48.582Z,26.25
2022-09-02T11:31:48.519Z,26.32
2022-09-02T11:32:48.552Z,26.37
2022-09-02T11:33:48.633Z,26.43
2022-09-02T11:34:48.608Z,26.40
2022-09-02T11:35:48.675Z,26.20
2022-09-02T11:36:48.678Z,26.07
2022-09-02T11:37:48.701Z,26.06
2022-09-02T11:38:48.737Z,25.92
2022-09-02T11:39:54.381Z,25.92
2022-09-02T11:41:32.542Z,25.92
2022-09-02T11:41:48.874Z,26.17
2022-09-02T11:42:48.879Z,26.07
2022-09-02T11:43:48.966Z,26.02
2022-09-02T11:44:52.624Z,25.95
2022-09-02T11:45:49.065Z,26.05
2022-09-02T11:46:49.092Z,25.92
2022-09-02T11:47:49.021Z,25.88
2022-09-02T11:48:49.050Z,25.85
2022-09-02T11:49:49.080Z,25.85
2022-09-02T11:50:49.113Z,25.94
2022-09-02T11:51:49.145Z,26.10
2022-09-02T11:52:49.175Z,26.13
2022-09-02T11:53:49.205Z,26.33
2022-09-02T11:54:49.237Z,26.32
2022-09-02T11:55:49.272Z,26.39
2022-09-02T11:56:49.305Z,26.36
2022-09-02T11:57:49.329Z,26.43
2022-09-02T11:58:49.370Z,26.48
2022-09-02T11:59:49.397Z,26.40
2022-09-02T12:00:49.430Z,26.43
2022-09-02T12:01:49.462Z,26.40
2022-09-02T12:02:49.488Z,26.35
2022-09-02T12:04:16.209Z,26.36
2022-09-02T12:04:59.885Z,26.29
2022-09-02T12:05:49.674Z,26.26
2022-09-02T12:06:49.746Z,26.26
2022-09-02T12:07:49.649Z,26.25
2022-09-02T12:08:49.681Z,26.25
2022-09-02T12:09:49.729Z,26.29
2022-09-02T12:10:49.754Z,26.35
2022-09-02T12:11:49.772Z,26.48
2022-09-02T12:12:51.816Z,26.57
2022-09-02T12:14:49.869Z,26.70
2022-09-02T12:15:49.937Z,26.77
2022-09-02T12:16:49.936Z,26.81
2022-09-02T12:17:49.965Z,26.89
2022-09-02T12:18:49.998Z,26.89
2022-09-02T12:19:50.030Z,26.92
2022-09-02T12:20:51.359Z,26.87
2022-09-02T12:21:50.090Z,26.82
2022-09-02T12:22:50.126Z,26.89
2022-09-02T12:23:50.156Z,26.72
2022-09-02T12:24:50.193Z,26.73
2022-09-02T12:25:50.218Z,26.81
2022-09-02T12:26:50.254Z,26.87
2022-09-02T12:27:50.290Z,26.94
2022-09-02T12:28:50.317Z,27.02
2022-09-02T12:29:52.148Z,27.07
2022-09-02T12:30:50.384Z,27.04
2022-09-02T12:31:50.498Z,27.04
2022-09-02T12:32:50.450Z,26.95
2022-09-02T12:33:50.479Z,26.91
2022-09-02T12:34:50.511Z,26.89
2022-09-02T12:35:50.543Z,26.92
2022-09-02T12:36:50.577Z,27.07
2022-09-02T12:37:50.606Z,27.09
2022-09-02T12:38:50.639Z,27.13
2022-09-02T12:39:50.674Z,27.27
2022-09-02T12:40:50.774Z,27.28
2022-09-02T12:41:50.740Z,27.39
2022-09-02T12:42:50.769Z,27.43
2022-09-02T12:43:50.815Z,27.40
2022-09-02T12:44:50.910Z,27.25
2022-09-02T12:45:50.878Z,27.22
2022-09-02T12:46:50.945Z,27.24
2022-09-02T12:47:50.935Z,27.24
2022-09-02T12:48:50.987Z,27.07
2022-09-02T12:49:51.000Z,27.00
2022-09-02T12:50:51.035Z,26.99
2022-09-02T12:51:51.061Z,27.04
2022-09-02T12:52:51.102Z,26.99
2022-09-02T12:53:51.137Z,27.03
2022-09-02T12:54:51.173Z,27.02
2022-09-02T12:55:51.199Z,26.92
2022-09-02T12:56:51.230Z,26.82
2022-09-02T12:57:51.261Z,26.89
2022-09-02T12:58:51.296Z,26.81
2022-09-02T12:59:51.328Z,26.80
2022-09-02T13:00:51.360Z,26.84
2022-09-02T13:01:51.544Z,26.85
2022-09-02T13:02:51.426Z,26.88
2022-09-02T13:03:51.457Z,26.94
2022-09-02T13:04:51.489Z,26.88
2022-09-02T13:05:51.520Z,26.95
2022-09-02T13:06:51.548Z,26.91
2022-09-02T13:07:51.587Z,26.95
2022-09-02T13:08:51.620Z,26.95
2022-09-02T13:09:51.649Z,26.92
2022-09-02T13:10:51.680Z,26.84
2022-09-02T13:11:51.718Z,26.77
2022-09-02T13:12:51.747Z,26.80
2022-09-02T13:13:51.774Z,26.65
2022-09-02T13:14:51.808Z,26.47
2022-09-02T13:15:51.859Z,26.39
2022-09-02T13:16:51.883Z,26.37
2022-09-02T13:17:51.930Z,26.36
2022-09-02T13:18:51.937Z,26.37
2022-09-02T13:19:51.973Z,26.45
2022-09-02T13:20:55.791Z,26.62
2022-09-02T13:21:52.031Z,26.76
2022-09-02T13:22:52.061Z,26.73
2022-09-02T13:23:52.095Z,26.87
2022-09-02T13:24:52.177Z,26.88
2022-09-02T13:25:52.162Z,27.03
2022-09-02T13:26:52.191Z,27.14
2022-09-02T13:27:52.226Z,27.18
2022-09-02T13:28:52.257Z,27.24
2022-09-02T13:29:52.305Z,27.24
2022-09-02T13:30:52.343Z,27.39
2022-09-02T13:31:52.355Z,27.37
2022-09-02T13:32:52.388Z,27.54
2022-09-02T13:33:52.417Z,27.63
2022-09-02T13:34:52.447Z,27.74
2022-09-02T13:35:52.483Z,27.79
2022-09-02T13:36:52.518Z,27.88
2022-09-02T13:37:52.662Z,27.88
2022-09-02T13:38:52.624Z,27.84
2022-09-02T13:39:52.614Z,27.75
2022-09-02T13:40:52.651Z,27.85
2022-09-02T13:41:52.679Z,27.93
2022-09-02T13:42:52.714Z,27.94
2022-09-02T13:43:52.747Z,28.03
2022-09-02T13:44:52.785Z,28.11
2022-09-02T13:45:52.962Z,28.15
2022-09-02T13:46:52.846Z,28.19
2022-09-02T13:47:52.881Z,28.27
2022-09-02T13:48:52.921Z,28.27
2022-09-02T13:49:52.956Z,28.22
2022-09-02T13:50:52.979Z,28.19
2022-09-02T13:51:53.011Z,28.25
2022-09-02T13:54:21.584Z,28.34
2022-09-02T13:54:53.110Z,28.31
2022-09-02T13:55:53.146Z,28.00
2022-09-02T13:56:53.179Z,28.02
2022-09-02T13:57:53.229Z,28.00
2022-09-02T13:58:53.241Z,28.00
2022-09-02T13:59:53.280Z,27.97
2022-09-02T14:00:53.783Z,27.93
2022-09-02T14:01:53.533Z,27.88
2022-09-02T14:02:53.497Z,27.72
2022-09-02T14:03:53.502Z,27.79
2022-09-02T14:04:53.438Z,27.81
2022-09-02T14:05:53.476Z,27.72
2022-09-02T14:06:53.514Z,27.66
2022-09-02T14:07:53.545Z,27.77
2022-09-02T14:08:53.576Z,27.79
2022-09-02T14:09:53.627Z,27.67
2022-09-02T14:10:53.638Z,27.85
2022-09-02T14:11:53.674Z,27.81
2022-09-02T14:12:53.702Z,27.82
2022-09-02T14:13:53.739Z,27.74
2022-09-02T14:14:53.770Z,27.66
2022-09-02T14:15:53.911Z,27.67
2022-09-02T14:16:53.838Z,27.63
2022-09-02T14:17:53.872Z,27.62
2022-09-02T14:18:53.900Z,27.51
2022-09-02T14:19:53.937Z,27.57
2022-09-02T14:20:53.970Z,27.54
2022-09-02T14:21:54.000Z,27.60
2022-09-02T14:22:54.032Z,27.65
2022-09-02T14:23:54.066Z,27.67
2022-09-02T14:24:54.097Z,27.65
2022-09-02T14:25:54.132Z,27.79
2022-09-02T14:26:54.169Z,27.77
2022-09-02T14:27:54.198Z,27.72
2022-09-02T14:28:54.229Z,27.65
2022-09-02T14:29:54.260Z,27.46
2022-09-02T14:30:54.304Z,27.46
2022-09-02T14:31:54.330Z,27.43
2022-09-02T14:32:54.413Z,27.28
2022-09-02T14:33:54.403Z,27.19
2022-09-02T14:34:54.422Z,26.99
2022-09-02T14:35:54.458Z,26.97
2022-09-02T14:36:54.513Z,26.95
2022-09-02T14:37:54.524Z,26.91
2022-09-02T14:38:54.556Z,26.85
2022-09-02T14:39:54.627Z,26.66
2022-09-02T14:40:54.626Z,26.58
2022-09-02T14:41:54.656Z,26.43
2022-09-02T14:42:57.776Z,26.33
2022-09-02T14:43:54.717Z,26.26
2022-09-02T14:44:54.748Z,26.26
2022-09-02T14:45:54.796Z,26.32
2022-09-02T14:46:54.826Z,26.43
2022-09-02T14:47:54.841Z,26.45
2022-09-02T14:48:54.879Z,26.51
2022-09-02T14:49:54.908Z,26.57
2022-09-02T14:50:57.215Z,26.54
2022-09-02T14:51:54.974Z,26.60
2022-09-02T14:52:55.003Z,26.57
2022-09-02T14:53:55.041Z,26.65
2022-09-02T14:54:55.074Z,26.69
2022-09-02T14:55:55.101Z,26.62
2022-09-02T14:56:55.134Z,26.55
2022-09-02T14:57:55.165Z,26.63
2022-09-02T14:58:55.197Z,26.63
2022-09-02T14:59:55.229Z,26.63
2022-09-02T15:00:55.264Z,26.66
2022-09-02T15:01:55.358Z,26.72
2022-09-02T15:02:55.319Z,26.85
2022-09-02T15:03:55.617Z,26.94
2022-09-02T15:04:55.467Z,27.03
2022-09-02T15:05:55.421Z,26.99
2022-09-02T15:06:55.466Z,26.92
2022-09-02T15:07:55.481Z,26.85
2022-09-02T15:08:55.516Z,26.82
2022-09-02T15:09:55.548Z,26.63
2022-09-02T15:10:55.580Z,26.65
2022-09-02T15:11:58.593Z,26.57
2022-09-02T15:12:55.639Z,26.44
2022-09-02T15:13:55.674Z,26.40
2022-09-02T15:14:55.708Z,26.47
2022-09-02T15:15:55.795Z,26.43
2022-09-02T15:16:55.772Z,26.51
2022-09-02T15:17:55.801Z,26.51
2022-09-02T15:18:55.830Z,26.58
2022-09-02T15:19:56.577Z,26.66